sensor_id;sensor_type;location;lat;lon;timestamp;temperature;humidity
9668;DHT22;4872;48.316;10.650;2024-03-23T05:07:58;12.20;75.80
9668;DHT22;4872;48.316;10.650;2024-03-23T05:10:25;12.60;76.40
9668;DHT22;4872;48.316;10.650;2024-03-23T05:12:52;12.10;76.00
9668;DHT22;4872;48.316;10.650;2024-03-23T05:15:19;12.20;76.10
9668;DHT22;4872;48.316;10.650;2024-03-23T05:17:44;12.10;76.20
9668;DHT22;4872;48.316;10.650;2024-03-23T05:20:11;12.10;76.20
9668;DHT22;4872;48.316;10.650;2024-03-23T05:22:38;12.10;76.30
9668;DHT22;4872;48.316;10.650;2024-03-23T05:25:06;12.10;76.30
9668;DHT22;4872;48.316;10.650;2024-03-23T05:27:33;12.00;76.30
9668;DHT22;4872;48.316;10.650;2024-03-23T05:30:00;12.00;76.20
9668;DHT22;4872;48.316;10.650;2024-03-23T05:32:25;12.60;77.00
9668;DHT22;4872;48.316;10.650;2024-03-23T05:34:53;12.20;76.80
9668;DHT22;4872;48.316;10.650;2024-03-23T05:37:22;12.00;76.90
9668;DHT22;4872;48.316;10.650;2024-03-23T05:39:49;12.00;76.90
9668;DHT22;4872;48.316;10.650;2024-03-23T05:42:16;12.00;76.70
9668;DHT22;4872;48.316;10.650;2024-03-23T05:44:44;12.10;76.60
9668;DHT22;4872;48.316;10.650;2024-03-23T05:47:10;12.10;76.70
9668;DHT22;4872;48.316;10.650;2024-03-23T05:49:38;12.30;77.00
9668;DHT22;4872;48.316;10.650;2024-03-23T05:52:04;12.10;76.70
9668;DHT22;4872;48.316;10.650;2024-03-23T05:54:31;12.20;76.60
9668;DHT22;4872;48.316;10.650;2024-03-23T05:56:57;12.20;76.50
9668;DHT22;4872;48.316;10.650;2024-03-23T05:59:26;12.30;76.50
9668;DHT22;4872;48.316;10.650;2024-03-23T06:01:52;12.40;76.60
9668;DHT22;4872;48.316;10.650;2024-03-23T06:04:19;12.50;76.40
9668;DHT22;4872;48.316;10.650;2024-03-23T06:06:45;12.60;76.40
9668;DHT22;4872;48.316;10.650;2024-03-23T06:09:12;12.70;76.30
9668;DHT22;4872;48.316;10.650;2024-03-23T06:11:37;12.90;76.30
9668;DHT22;4872;48.316;10.650;2024-03-23T06:14:05;12.90;76.40
9668;DHT22;4872;48.316;10.650;2024-03-23T06:16:32;13.40;76.30
9668;DHT22;4872;48.316;10.650;2024-03-23T06:18:59;13.20;76.30
9668;DHT22;4872;48.316;10.650;2024-03-23T06:21:25;13.10;76.50
9668;DHT22;4872;48.316;10.650;2024-03-23T06:23:52;13.00;76.70
9668;DHT22;4872;48.316;10.650;2024-03-23T06:26:18;12.90;76.80
9668;DHT22;4872;48.316;10.650;2024-03-23T06:28:45;12.80;77.30
9668;DHT22;4872;48.316;10.650;2024-03-23T06:31:12;12.70;77.50
9668;DHT22;4872;48.316;10.650;2024-03-23T06:33:39;12.60;77.80
9668;DHT22;4872;48.316;10.650;2024-03-23T06:36:09;12.70;78.30
9668;DHT22;4872;48.316;10.650;2024-03-23T06:38:35;12.70;78.40
9668;DHT22;4872;48.316;10.650;2024-03-23T06:41:02;12.70;78.70
9668;DHT22;4872;48.316;10.650;2024-03-23T06:43:28;12.60;79.80
9668;DHT22;4872;48.316;10.650;2024-03-23T06:45:55;12.60;80.10
9668;DHT22;4872;48.316;10.650;2024-03-23T06:48:22;12.50;80.40
9668;DHT22;4872;48.316;10.650;2024-03-23T06:50:54;12.60;80.70
9668;DHT22;4872;48.316;10.650;2024-03-23T06:53:20;12.60;80.80
9668;DHT22;4872;48.316;10.650;2024-03-23T06:55:50;12.50;81.40
9668;DHT22;4872;48.316;10.650;2024-03-23T06:58:16;12.50;81.70
9668;DHT22;4872;48.316;10.650;2024-03-23T07:00:43;12.50;82.10
9668;DHT22;4872;48.316;10.650;2024-03-23T07:03:08;12.40;82.50
9668;DHT22;4872;48.316;10.650;2024-03-23T07:05:35;12.40;83.30
9668;DHT22;4872;48.316;10.650;2024-03-23T07:08:02;12.40;84.50
9668;DHT22;4872;48.316;10.650;2024-03-23T07:10:29;12.20;85.60
9668;DHT22;4872;48.316;10.650;2024-03-23T07:12:55;12.30;87.40
9668;DHT22;4872;48.316;10.650;2024-03-23T07:15:21;12.10;87.00
9668;DHT22;4872;48.316;10.650;2024-03-23T07:17:47;12.00;88.00
9668;DHT22;4872;48.316;10.650;2024-03-23T07:20:15;12.00;88.80
9668;DHT22;4872;48.316;10.650;2024-03-23T07:22:41;11.60;87.90
9668;DHT22;4872;48.316;10.650;2024-03-23T07:25:09;10.80;89.00
9668;DHT22;4872;48.316;10.650;2024-03-23T07:27:35;10.30;90.30
9668;DHT22;4872;48.316;10.650;2024-03-23T07:30:02;10.00;90.90
9668;DHT22;4872;48.316;10.650;2024-03-23T07:32:28;9.80;92.20
9668;DHT22;4872;48.316;10.650;2024-03-23T07:34:54;10.40;92.80
9668;DHT22;4872;48.316;10.650;2024-03-23T07:37:20;9.70;93.70
9668;DHT22;4872;48.316;10.650;2024-03-23T07:39:47;9.70;94.20
9668;DHT22;4872;48.316;10.650;2024-03-23T07:42:14;9.80;94.40
